Terminal Aerodrome Forecast
Issued by NWS

Home | Current Version | Previous Version | Text Only | Print | Product List | Glossary On
Versions: 1 2 3 4 5 6 7 8 9 10 11 12 13 14 15 16 17 18 19
872
FTUS43 KIND 211120
TAFHUF
TAF
KHUF 211120Z 2112/2212 VRB03KT P6SM VCSH SCT050 BKN120
     FM211400 18005KT P6SM VCSH OVC070
     FM211800 19007KT P6SM VCTS BKN040CB OVC080
     FM212100 20007KT P6SM BKN040 OVC090 PROB30 2121/2201 4SM -TSRA
      OVC025CB
     FM220100 VRB04KT P6SM BKN060=

USA.gov is the U.S. government's official web portal to all federal, state and local government web resources and services.